createdAt,value
2023-01-08T00:01:13.202Z,-0.50
2023-01-08T00:03:40.238Z,-0.80
2023-01-08T00:06:13.553Z,-1.10
2023-01-08T00:08:40.392Z,-1.20
2023-01-08T00:11:07.303Z,-1.30
2023-01-08T00:13:34.556Z,-1.30
2023-01-08T00:16:10.241Z,-1.20
2023-01-08T00:18:37.507Z,-1.00
2023-01-08T00:21:05.319Z,-1.20
2023-01-08T00:23:32.700Z,-1.00
2023-01-08T00:26:04.070Z,-1.30
2023-01-08T00:28:31.125Z,-1.30
2023-01-08T00:30:58.162Z,-1.30
2023-01-08T00:33:25.403Z,-1.20
2023-01-08T00:35:52.236Z,-1.20
2023-01-08T00:38:19.073Z,-1.10
2023-01-08T00:40:48.068Z,-1.10
2023-01-08T00:43:14.793Z,-1.00
2023-01-08T00:45:42.597Z,-1.00
2023-01-08T00:48:10.411Z,-0.90
2023-01-08T00:50:37.373Z,-1.10
2023-01-08T00:53:04.355Z,-1.30
2023-01-08T00:55:31.173Z,-1.20
2023-01-08T00:57:58.320Z,-1.10
2023-01-08T01:00:25.621Z,-1.20
2023-01-08T01:02:52.511Z,-1.50
2023-01-08T01:05:19.426Z,-1.50
2023-01-08T01:07:46.623Z,-1.30
2023-01-08T01:10:16.287Z,-1.20
2023-01-08T01:12:43.849Z,-1.20
2023-01-08T01:15:14.249Z,-1.10
2023-01-08T01:17:43.005Z,-1.00
2023-01-08T01:20:11.916Z,-0.80
2023-01-08T01:22:38.859Z,-0.70
2023-01-08T01:25:06.338Z,-0.80
2023-01-08T01:27:33.201Z,-0.70
2023-01-08T01:30:00.093Z,-0.80
2023-01-08T01:32:26.981Z,-1.20
2023-01-08T01:34:53.741Z,-1.30
2023-01-08T01:37:20.563Z,-1.20
2023-01-08T01:39:47.402Z,-1.10
2023-01-08T01:42:35.646Z,-1.10
2023-01-08T01:45:18.169Z,-1.20
2023-01-08T01:47:48.645Z,-1.10
2023-01-08T01:50:20.395Z,-1.10
2023-01-08T01:53:00.312Z,-1.20
2023-01-08T01:55:27.853Z,-1.10
2023-01-08T01:58:24.177Z,-1.30
2023-01-08T02:00:53.347Z,-1.20
2023-01-08T02:03:25.783Z,-1.30
2023-01-08T02:06:30.029Z,-1.40
2023-01-08T02:09:06.057Z,-1.30
2023-01-08T02:11:40.813Z,-1.30
2023-01-08T02:14:22.941Z,-1.60
2023-01-08T02:17:06.670Z,-1.60
2023-01-08T02:19:52.573Z,-1.30
2023-01-08T02:22:34.259Z,-1.40
2023-01-08T02:25:34.696Z,-1.50
2023-01-08T02:28:02.968Z,-1.50
2023-01-08T02:30:30.516Z,-1.80
2023-01-08T02:32:57.319Z,-1.90
2023-01-08T02:35:24.108Z,-1.70
2023-01-08T02:37:50.904Z,-1.50
2023-01-08T02:41:02.706Z,-1.90
2023-01-08T02:43:51.457Z,-1.70
2023-01-08T02:46:23.518Z,-1.70
2023-01-08T02:48:54.889Z,-1.70
2023-01-08T02:51:31.276Z,-1.90
2023-01-08T02:54:06.954Z,-1.80
2023-01-08T02:56:38.940Z,-1.70
2023-01-08T02:59:08.190Z,-1.60
2023-01-08T03:01:36.044Z,-1.80
2023-01-08T03:04:09.967Z,-2.00
2023-01-08T03:06:38.340Z,-1.80
2023-01-08T03:09:06.281Z,-1.90
2023-01-08T03:11:39.561Z,-2.10
2023-01-08T03:14:21.728Z,-2.20
2023-01-08T03:16:55.982Z,-1.90
2023-01-08T03:19:31.301Z,-1.90
2023-01-08T03:21:59.887Z,-2.20
2023-01-08T03:24:30.014Z,-2.30
2023-01-08T03:27:00.894Z,-1.90
2023-01-08T03:29:28.687Z,-1.70
2023-01-08T03:32:02.245Z,-1.70
2023-01-08T03:34:32.273Z,-1.60
2023-01-08T03:37:02.994Z,-1.80
2023-01-08T03:39:37.629Z,-1.80
2023-01-08T03:42:07.927Z,-2.10
2023-01-08T03:44:34.729Z,-2.20
2023-01-08T03:47:03.280Z,-2.10
2023-01-08T03:49:31.253Z,-1.90
2023-01-08T03:51:57.996Z,-2.00
2023-01-08T03:54:29.881Z,-2.10
2023-01-08T03:56:56.667Z,-1.90
2023-01-08T03:59:23.804Z,-2.20
2023-01-08T04:01:50.765Z,-2.30
2023-01-08T04:04:18.176Z,-2.30
2023-01-08T04:06:44.952Z,-2.20
2023-01-08T04:09:11.748Z,-2.20
2023-01-08T04:11:38.531Z,-2.20
2023-01-08T04:14:05.318Z,-2.10
2023-01-08T04:16:32.156Z,-2.00
2023-01-08T04:18:58.921Z,-2.30
2023-01-08T04:21:25.707Z,-2.40
2023-01-08T04:23:52.469Z,-2.20
2023-01-08T04:26:19.213Z,-2.10
2023-01-08T04:28:45.990Z,-2.00
2023-01-08T04:31:12.897Z,-2.20
2023-01-08T04:33:39.844Z,-2.20
2023-01-08T04:36:06.742Z,-2.30
2023-01-08T04:38:33.553Z,-2.30
2023-01-08T04:41:01.583Z,-2.40
2023-01-08T04:43:29.556Z,-2.60
2023-01-08T04:46:04.213Z,-2.50
2023-01-08T04:48:31.293Z,-2.40
2023-01-08T04:50:59.185Z,-2.30
2023-01-08T04:53:26.552Z,-2.60
2023-01-08T04:55:53.304Z,-2.40
2023-01-08T04:58:20.317Z,-2.10
2023-01-08T05:00:47.480Z,-1.90
2023-01-08T05:03:14.936Z,-2.20
2023-01-08T05:05:41.774Z,-2.40
2023-01-08T05:08:08.534Z,-2.60
2023-01-08T05:10:35.283Z,-2.50
2023-01-08T05:13:02.596Z,-2.30
2023-01-08T05:15:29.447Z,-2.30
2023-01-08T05:18:03.926Z,-2.20
2023-01-08T05:20:32.264Z,-2.10
2023-01-08T05:22:59.216Z,-1.90
2023-01-08T05:25:25.976Z,-1.70
2023-01-08T05:27:53.528Z,-1.90
2023-01-08T05:30:20.315Z,-2.10
2023-01-08T05:32:47.107Z,-2.10
2023-01-08T05:35:14.052Z,-2.00
2023-01-08T05:37:40.903Z,-2.00
2023-01-08T05:40:08.268Z,-2.00
2023-01-08T05:42:36.184Z,-2.00
2023-01-08T05:45:05.062Z,-2.40
2023-01-08T05:47:32.977Z,-2.60
2023-01-08T05:49:59.883Z,-2.50
2023-01-08T05:52:26.932Z,-2.30
2023-01-08T05:54:53.718Z,-2.40
2023-01-08T05:57:20.554Z,-2.40
2023-01-08T05:59:47.384Z,-2.20
2023-01-08T06:02:14.206Z,-2.30
2023-01-08T06:04:41.135Z,-2.60
2023-01-08T06:07:08.033Z,-2.60
2023-01-08T06:09:34.781Z,-2.50
2023-01-08T06:12:01.528Z,-2.40
2023-01-08T06:14:28.392Z,-2.70
2023-01-08T06:16:55.160Z,-2.70
2023-01-08T06:19:22.683Z,-2.70
2023-01-08T06:21:49.523Z,-2.80
2023-01-08T06:24:16.273Z,-2.70
2023-01-08T06:26:43.146Z,-2.50
2023-01-08T06:29:10.060Z,-2.50
2023-01-08T06:31:36.866Z,-2.60
2023-01-08T06:34:03.731Z,-2.70
2023-01-08T06:36:30.584Z,-2.60
2023-01-08T06:38:57.328Z,-2.50
2023-01-08T06:41:24.252Z,-2.30
2023-01-08T06:43:51.075Z,-2.30
2023-01-08T06:46:18.260Z,-2.20
2023-01-08T06:48:45.227Z,-2.30
2023-01-08T06:51:12.036Z,-2.40
2023-01-08T06:53:38.826Z,-2.40
2023-01-08T06:56:07.564Z,-2.20
2023-01-08T06:58:34.332Z,-2.20
2023-01-08T07:01:01.146Z,-2.70
2023-01-08T07:03:28.052Z,-2.90
2023-01-08T07:05:56.155Z,-2.70
2023-01-08T07:08:23.294Z,-2.60
2023-01-08T07:10:50.253Z,-2.30
2023-01-08T07:13:17.007Z,-2.40
2023-01-08T07:15:44.088Z,-2.60
2023-01-08T07:18:12.101Z,-2.40
2023-01-08T07:20:39.771Z,-2.30
2023-01-08T07:23:10.260Z,-2.10
2023-01-08T07:25:37.048Z,-2.30
2023-01-08T07:28:03.841Z,-2.30
2023-01-08T07:30:30.978Z,-2.20
2023-01-08T07:33:01.843Z,-2.10
2023-01-08T07:35:29.312Z,-2.20
2023-01-08T07:37:56.396Z,-2.00
2023-01-08T07:40:23.244Z,-1.90
2023-01-08T07:43:01.389Z,-1.90
2023-01-08T07:45:29.749Z,-1.80
2023-01-08T07:48:00.547Z,-2.10
2023-01-08T07:50:27.769Z,-2.10
2023-01-08T07:53:00.869Z,-1.90
2023-01-08T07:55:29.076Z,-1.90
2023-01-08T07:57:55.896Z,-1.90
2023-01-08T08:00:22.880Z,-1.80
2023-01-08T08:02:49.821Z,-1.60
2023-01-08T08:05:17.881Z,-1.50
2023-01-08T08:07:44.930Z,-1.50
2023-01-08T08:10:12.074Z,-1.40
2023-01-08T08:12:38.853Z,-1.50
2023-01-08T08:15:06.303Z,-1.60
2023-01-08T08:17:33.100Z,-1.50
2023-01-08T08:19:59.814Z,-1.40
2023-01-08T08:22:27.199Z,-1.30
2023-01-08T08:24:53.963Z,-1.20
2023-01-08T08:27:20.786Z,-1.20
2023-01-08T08:29:47.562Z,-1.10
2023-01-08T08:32:14.298Z,-1.00
2023-01-08T08:34:41.055Z,-1.00
2023-01-08T08:37:09.002Z,-1.20
2023-01-08T08:39:36.673Z,-1.20
2023-01-08T08:42:03.464Z,-1.10
2023-01-08T08:44:30.205Z,-1.00
2023-01-08T08:46:57.086Z,-1.00
2023-01-08T08:49:23.941Z,-0.90
2023-01-08T08:51:50.715Z,-0.80
2023-01-08T08:54:17.481Z,-0.80
2023-01-08T08:56:44.224Z,-0.80
2023-01-08T08:59:13.264Z,-0.80
2023-01-08T09:01:40.159Z,-0.60
2023-01-08T09:04:07.019Z,-0.50
2023-01-08T09:06:33.798Z,-0.30
2023-01-08T09:09:00.547Z,-0.30
2023-01-08T09:11:27.423Z,-0.30
2023-01-08T09:13:54.208Z,-0.20
2023-01-08T09:16:21.043Z,0.00
2023-01-08T09:18:49.105Z,0.20
2023-01-08T09:21:16.093Z,0.20
2023-01-08T09:23:42.874Z,0.50
2023-01-08T09:26:09.710Z,0.60
2023-01-08T09:28:36.491Z,0.70
2023-01-08T09:31:03.891Z,0.90
2023-01-08T09:33:31.201Z,1.10
2023-01-08T09:35:57.985Z,1.10
2023-01-08T09:38:24.728Z,1.50
2023-01-08T09:40:59.956Z,1.80
2023-01-08T09:43:29.926Z,2.20
2023-01-08T09:45:59.786Z,2.20
2023-01-08T09:48:29.626Z,2.30
2023-01-08T09:50:56.831Z,2.30
2023-01-08T09:53:24.375Z,2.20
2023-01-08T09:56:11.088Z,2.50
2023-01-08T09:58:50.464Z,3.00
2023-01-08T10:01:21.142Z,3.30
2023-01-08T10:03:53.785Z,3.50
2023-01-08T10:06:20.548Z,3.60
2023-01-08T10:08:47.459Z,3.50
2023-01-08T10:11:15.658Z,3.60
2023-01-08T10:13:49.841Z,3.80
2023-01-08T10:16:27.463Z,3.70
2023-01-08T10:18:54.647Z,3.80
2023-01-08T10:21:24.427Z,4.10
2023-01-08T10:23:53.285Z,4.20
2023-01-08T10:26:38.045Z,4.30
2023-01-08T10:29:13.921Z,4.50
2023-01-08T10:31:48.608Z,4.60
2023-01-08T10:34:26.804Z,4.50
2023-01-08T10:36:55.142Z,4.50
2023-01-08T10:39:26.853Z,4.40
2023-01-08T10:41:55.505Z,4.40
2023-01-08T10:44:24.306Z,4.60
2023-01-08T10:46:55.801Z,4.80
2023-01-08T10:49:41.783Z,4.70
2023-01-08T10:52:29.292Z,5.00
2023-01-08T10:54:56.496Z,4.90
2023-01-08T10:57:29.285Z,4.80
2023-01-08T10:59:56.986Z,4.80
2023-01-08T11:02:39.174Z,4.90
2023-01-08T11:05:10.330Z,5.10
2023-01-08T11:07:37.681Z,5.10
2023-01-08T11:10:05.223Z,4.90
2023-01-08T11:12:36.806Z,5.00
2023-01-08T11:15:26.124Z,5.10
2023-01-08T11:17:52.949Z,5.40
2023-01-08T11:20:30.882Z,5.50
2023-01-08T11:23:13.688Z,5.40
2023-01-08T11:25:42.549Z,5.30
2023-01-08T11:28:15.603Z,5.20
2023-01-08T11:30:48.066Z,5.20
2023-01-08T11:33:21.124Z,5.20
2023-01-08T11:35:53.136Z,5.00
2023-01-08T11:38:19.893Z,5.30
2023-01-08T11:41:16.263Z,5.10
2023-01-08T11:44:20.579Z,5.20
2023-01-08T11:47:02.752Z,5.10
2023-01-08T11:49:46.421Z,4.70
2023-01-08T11:52:28.167Z,4.80
2023-01-08T11:54:57.947Z,4.90
2023-01-08T11:57:44.855Z,5.00
2023-01-08T12:00:16.499Z,5.10
2023-01-08T12:03:08.194Z,5.10
2023-01-08T12:05:48.545Z,5.10
2023-01-08T12:08:24.413Z,5.30
2023-01-08T12:11:10.318Z,5.40
2023-01-08T12:14:02.662Z,5.50
2023-01-08T12:16:41.127Z,5.60
2023-01-08T12:19:16.780Z,5.80
2023-01-08T12:21:55.467Z,5.80
2023-01-08T12:24:52.787Z,5.90
2023-01-08T12:27:29.834Z,5.80
2023-01-08T12:30:17.382Z,5.90
2023-01-08T12:32:48.059Z,5.90
2023-01-08T12:35:20.303Z,5.80
2023-01-08T12:38:03.560Z,5.80
2023-01-08T12:40:45.160Z,5.80
2023-01-08T12:43:21.353Z,5.90
2023-01-08T12:45:53.408Z,5.90
2023-01-08T12:48:30.063Z,6.10
2023-01-08T12:51:18.393Z,6.40
2023-01-08T12:54:12.932Z,6.50
2023-01-08T12:56:45.759Z,6.50
2023-01-08T12:59:47.997Z,6.40
2023-01-08T13:02:33.554Z,6.50
2023-01-08T13:05:29.509Z,6.90
2023-01-08T13:08:03.175Z,6.90
2023-01-08T13:10:37.823Z,6.60
2023-01-08T13:13:06.696Z,6.70
2023-01-08T13:15:35.082Z,6.60
2023-01-08T13:18:28.179Z,6.50
2023-01-08T13:21:00.424Z,6.40
2023-01-08T13:23:30.463Z,6.50
2023-01-08T13:26:01.885Z,6.60
2023-01-08T13:28:41.284Z,6.50
2023-01-08T13:31:09.183Z,6.30
2023-01-08T13:33:36.038Z,6.10
2023-01-08T13:36:25.848Z,6.10
2023-01-08T13:39:10.732Z,6.00
2023-01-08T13:41:59.367Z,5.90
2023-01-08T13:44:48.705Z,5.80
2023-01-08T13:47:37.060Z,5.80
2023-01-08T13:50:20.894Z,5.60
2023-01-08T13:52:50.143Z,5.60
2023-01-08T13:55:38.933Z,5.50
2023-01-08T13:58:23.877Z,5.40
2023-01-08T14:00:53.762Z,5.30
2023-01-08T14:03:27.611Z,5.30
2023-01-08T14:06:13.602Z,5.30
2023-01-08T14:09:01.167Z,5.40
2023-01-08T14:11:29.538Z,5.10
2023-01-08T14:13:57.417Z,5.10
2023-01-08T14:16:24.505Z,4.90
2023-01-08T14:18:51.891Z,4.80
2023-01-08T14:21:23.184Z,4.80
2023-01-08T14:23:51.750Z,4.70
2023-01-08T14:26:38.958Z,4.80
2023-01-08T14:29:15.280Z,4.50
2023-01-08T14:31:56.555Z,4.60
2023-01-08T14:34:26.752Z,4.80
2023-01-08T14:36:55.202Z,4.90
2023-01-08T14:39:39.228Z,4.90
2023-01-08T14:42:37.264Z,4.80
2023-01-08T14:45:14.299Z,4.60
2023-01-08T14:47:45.901Z,4.90
2023-01-08T14:50:25.118Z,4.70
2023-01-08T14:52:54.961Z,4.40
2023-01-08T14:55:22.666Z,4.30
2023-01-08T14:57:53.304Z,4.30
2023-01-08T15:00:26.921Z,4.30
2023-01-08T15:02:54.248Z,4.40
2023-01-08T15:05:25.990Z,4.60
2023-01-08T15:07:59.526Z,4.40
2023-01-08T15:10:41.802Z,4.20
2023-01-08T15:13:25.580Z,4.00
2023-01-08T15:15:59.434Z,4.00
2023-01-08T15:18:26.809Z,4.10
2023-01-08T15:20:54.424Z,4.10
2023-01-08T15:23:27.234Z,4.00
2023-01-08T15:25:56.273Z,4.10
2023-01-08T15:28:23.226Z,4.20
2023-01-08T15:30:50.473Z,4.10
2023-01-08T15:33:20.263Z,4.00
2023-01-08T15:35:47.912Z,3.90
2023-01-08T15:38:15.069Z,3.90
2023-01-08T15:40:42.009Z,3.80
2023-01-08T15:43:13.083Z,3.70
2023-01-08T15:45:45.794Z,3.80
2023-01-08T15:48:12.776Z,3.90
2023-01-08T15:50:42.182Z,3.80
2023-01-08T15:53:24.794Z,3.80
2023-01-08T15:55:51.917Z,3.70
2023-01-08T15:58:18.793Z,3.70
2023-01-08T16:00:46.671Z,3.70
2023-01-08T16:03:14.973Z,3.60
2023-01-08T16:05:42.132Z,3.70
2023-01-08T16:08:11.135Z,3.70
2023-01-08T16:10:38.358Z,3.50
2023-01-08T16:13:05.120Z,3.50
2023-01-08T16:15:32.037Z,3.40
2023-01-08T16:17:59.559Z,3.40
2023-01-08T16:20:26.729Z,3.60
2023-01-08T16:22:54.988Z,3.50
2023-01-08T16:25:21.930Z,3.70
2023-01-08T16:27:48.714Z,3.70
2023-01-08T16:30:16.005Z,3.50
2023-01-08T16:32:43.329Z,3.40
2023-01-08T16:35:11.163Z,3.30
2023-01-08T16:37:39.102Z,3.40
2023-01-08T16:40:09.947Z,3.70
2023-01-08T16:42:37.151Z,3.70
2023-01-08T16:45:04.736Z,3.60
2023-01-08T16:47:31.610Z,3.70
2023-01-08T16:49:58.493Z,3.60
2023-01-08T16:52:25.285Z,3.50
2023-01-08T16:54:52.125Z,3.90
2023-01-08T16:57:18.919Z,4.00
2023-01-08T16:59:45.797Z,3.80
2023-01-08T17:02:12.565Z,3.80
2023-01-08T17:04:39.438Z,3.60
2023-01-08T17:07:06.697Z,3.50
2023-01-08T17:09:33.845Z,3.50
2023-01-08T17:12:00.691Z,3.60
2023-01-08T17:14:27.462Z,3.60
2023-01-08T17:16:54.260Z,3.50
2023-01-08T17:19:21.765Z,3.50
2023-01-08T17:21:50.432Z,3.50
2023-01-08T17:24:17.265Z,3.40
2023-01-08T17:26:44.051Z,3.30
2023-01-08T17:29:10.942Z,3.40
2023-01-08T17:31:40.601Z,3.40
2023-01-08T17:34:11.834Z,3.30
2023-01-08T17:36:38.673Z,3.20
2023-01-08T17:39:05.514Z,3.20
2023-01-08T17:41:53.412Z,3.30
2023-01-08T17:44:20.339Z,3.30
2023-01-08T17:46:47.372Z,3.40
2023-01-08T17:49:15.280Z,3.30
2023-01-08T17:51:43.267Z,3.40
2023-01-08T17:54:12.350Z,3.30
2023-01-08T17:56:39.279Z,3.20
2023-01-08T17:59:07.807Z,3.10
2023-01-08T18:01:36.693Z,3.40
2023-01-08T18:04:03.867Z,3.30
2023-01-08T18:06:30.859Z,3.30
2023-01-08T18:08:57.857Z,3.30
2023-01-08T18:11:25.610Z,3.40
2023-01-08T18:14:00.218Z,3.40
2023-01-08T18:16:28.675Z,3.30
2023-01-08T18:18:59.853Z,3.30
2023-01-08T18:21:28.252Z,3.30
2023-01-08T18:23:55.291Z,3.30
2023-01-08T18:26:23.223Z,3.30
2023-01-08T18:28:52.233Z,3.10
2023-01-08T18:31:19.181Z,3.30
2023-01-08T18:33:48.980Z,3.30
2023-01-08T18:36:15.931Z,3.30
2023-01-08T18:38:43.995Z,3.20
2023-01-08T18:41:33.645Z,3.30
2023-01-08T18:44:01.460Z,3.30
2023-01-08T18:46:28.841Z,3.30
2023-01-08T18:48:55.957Z,3.50
2023-01-08T18:51:23.204Z,3.20
2023-01-08T18:53:50.199Z,3.50
2023-01-08T18:56:23.515Z,3.60
2023-01-08T18:58:50.735Z,3.50
2023-01-08T19:01:17.672Z,3.40
2023-01-08T19:03:44.644Z,3.00
2023-01-08T19:06:13.001Z,3.20
2023-01-08T19:08:40.775Z,3.20
2023-01-08T19:11:08.820Z,3.20
2023-01-08T19:13:35.925Z,3.10
2023-01-08T19:16:07.954Z,3.00
2023-01-08T19:18:35.063Z,3.50
2023-01-08T19:21:01.871Z,3.10
2023-01-08T19:23:29.053Z,2.90
2023-01-08T19:25:55.792Z,2.80
2023-01-08T19:28:22.583Z,3.00
2023-01-08T19:31:00.236Z,2.90
2023-01-08T19:33:27.308Z,2.70
2023-01-08T19:35:54.219Z,2.50
2023-01-08T19:38:21.366Z,2.70
2023-01-08T19:40:48.137Z,2.50
2023-01-08T19:43:33.506Z,2.30
2023-01-08T19:46:06.946Z,2.20
2023-01-08T19:48:34.664Z,2.40
2023-01-08T19:51:10.276Z,2.30
2023-01-08T19:53:37.514Z,2.20
2023-01-08T19:56:09.694Z,2.20
2023-01-08T19:58:36.638Z,2.20
2023-01-08T20:01:15.691Z,2.20
2023-01-08T20:03:43.300Z,2.00
2023-01-08T20:06:17.349Z,1.90
2023-01-08T20:08:46.245Z,2.00
2023-01-08T20:11:14.929Z,2.10
2023-01-08T20:13:42.232Z,2.10
2023-01-08T20:16:12.426Z,2.20
2023-01-08T20:18:39.977Z,2.40
2023-01-08T20:21:12.243Z,2.20
2023-01-08T20:23:39.831Z,2.00
2023-01-08T20:26:08.955Z,2.00
2023-01-08T20:28:37.588Z,2.10
2023-01-08T20:31:06.147Z,1.90
2023-01-08T20:33:33.963Z,1.90
2023-01-08T20:36:01.289Z,1.90
2023-01-08T20:38:28.119Z,2.00
2023-01-08T20:40:54.870Z,2.10
2023-01-08T20:43:21.741Z,2.00
2023-01-08T20:45:48.817Z,1.90
2023-01-08T20:48:15.626Z,1.90
2023-01-08T20:50:46.846Z,2.10
2023-01-08T20:53:14.487Z,2.00
2023-01-08T20:55:41.452Z,1.90
2023-01-08T20:58:08.217Z,2.00
2023-01-08T21:00:34.999Z,2.20
2023-01-08T21:03:02.045Z,2.10
2023-01-08T21:05:30.211Z,2.00
2023-01-08T21:07:57.033Z,2.00
2023-01-08T21:10:23.817Z,2.00
2023-01-08T21:12:50.685Z,2.00
2023-01-08T21:15:17.533Z,2.10
2023-01-08T21:17:44.300Z,2.10
2023-01-08T21:20:11.769Z,2.10
2023-01-08T21:22:38.585Z,2.00
2023-01-08T21:25:06.145Z,2.00
2023-01-08T21:27:33.117Z,2.20
2023-01-08T21:29:59.975Z,2.20
2023-01-08T21:32:26.744Z,2.10
2023-01-08T21:34:53.678Z,1.90
2023-01-08T21:37:20.427Z,2.00
2023-01-08T21:39:48.100Z,2.10
2023-01-08T21:42:33.315Z,2.00
2023-01-08T21:45:18.599Z,2.00
2023-01-08T21:47:45.352Z,2.00
2023-01-08T21:50:12.459Z,2.20
2023-01-08T21:52:57.813Z,2.10
2023-01-08T21:55:24.701Z,2.00
2023-01-08T21:57:51.524Z,1.90
2023-01-08T22:00:18.480Z,2.10
2023-01-08T22:02:46.698Z,2.00
2023-01-08T22:05:13.480Z,1.90
2023-01-08T22:07:40.328Z,2.10
2023-01-08T22:10:08.214Z,2.30
2023-01-08T22:12:34.953Z,2.00
2023-01-08T22:15:01.786Z,2.00
2023-01-08T22:17:30.723Z,2.00
2023-01-08T22:19:58.036Z,2.00
2023-01-08T22:22:24.837Z,2.00
2023-01-08T22:24:52.375Z,2.20
2023-01-08T22:27:19.441Z,2.30
2023-01-08T22:29:47.782Z,2.40
2023-01-08T22:32:14.809Z,2.40
2023-01-08T22:34:41.701Z,2.40
2023-01-08T22:37:08.486Z,2.60
2023-01-08T22:39:35.239Z,2.50
2023-01-08T22:42:02.031Z,2.50
2023-01-08T22:44:28.853Z,2.60
2023-01-08T22:46:56.598Z,2.80
2023-01-08T22:49:23.473Z,2.90
2023-01-08T22:51:50.268Z,2.90
2023-01-08T22:54:18.158Z,2.80
2023-01-08T22:56:44.969Z,2.90
2023-01-08T22:59:11.770Z,3.00
2023-01-08T23:01:38.628Z,3.40
2023-01-08T23:04:06.051Z,3.30
2023-01-08T23:06:33.808Z,3.20
2023-01-08T23:09:00.723Z,3.20
2023-01-08T23:11:27.955Z,3.20
2023-01-08T23:13:55.205Z,3.10
2023-01-08T23:16:24.826Z,3.40
2023-01-08T23:18:52.933Z,3.30
2023-01-08T23:21:21.917Z,3.20
2023-01-08T23:23:49.093Z,3.30
2023-01-08T23:26:24.219Z,3.30
2023-01-08T23:28:52.891Z,3.10
2023-01-08T23:31:22.980Z,3.10
2023-01-08T23:33:49.840Z,3.20
2023-01-08T23:36:21.128Z,3.40
2023-01-08T23:38:50.057Z,3.60
2023-01-08T23:41:17.745Z,3.50
2023-01-08T23:43:46.042Z,3.40
2023-01-08T23:46:13.655Z,3.40
2023-01-08T23:48:40.522Z,3.40
2023-01-08T23:51:07.663Z,3.60
2023-01-08T23:53:34.640Z,3.40
2023-01-08T23:56:01.396Z,3.20
2023-01-08T23:58:28.172Z,3.30
